createdAt,value
2018-05-12T00:02:22.706Z,19.00
2018-05-12T00:04:50.991Z,21.03
2018-05-12T00:07:19.270Z,22.73
2018-05-12T00:09:47.555Z,22.23
2018-05-12T00:12:15.849Z,22.50
2018-05-12T00:14:44.137Z,20.93
2018-05-12T00:17:13.198Z,20.53
2018-05-12T00:19:41.451Z,21.50
2018-05-12T00:22:09.741Z,20.40
2018-05-12T00:24:38.008Z,20.60
2018-05-12T00:27:06.310Z,21.33
2018-05-12T00:29:34.577Z,20.60
2018-05-12T00:32:02.834Z,21.57
2018-05-12T00:34:31.151Z,20.27
2018-05-12T00:36:59.418Z,20.80
2018-05-12T00:39:27.702Z,20.13
2018-05-12T00:41:55.970Z,18.27
2018-05-12T00:44:24.286Z,20.37
2018-05-12T00:46:53.329Z,19.07
2018-05-12T00:49:21.597Z,19.60
2018-05-12T00:51:49.854Z,19.40
2018-05-12T00:54:18.174Z,19.33
2018-05-12T00:56:46.466Z,19.20
2018-05-12T00:59:14.746Z,19.37
2018-05-12T01:01:43.004Z,19.13
2018-05-12T01:04:11.274Z,20.20
2018-05-12T01:06:39.552Z,18.90
2018-05-12T01:09:07.839Z,20.20
2018-05-12T01:11:36.097Z,19.83
2018-05-12T01:14:04.482Z,20.20
2018-05-12T01:16:32.756Z,19.77
2018-05-12T01:19:01.034Z,19.30
2018-05-12T01:21:29.308Z,20.47
2018-05-12T01:23:57.604Z,19.80
2018-05-12T01:26:25.882Z,20.10
2018-05-12T01:28:54.190Z,19.80
2018-05-12T01:31:22.508Z,19.60
2018-05-12T01:33:50.793Z,21.33
2018-05-12T01:36:19.074Z,21.80
2018-05-12T01:38:47.360Z,20.63
2018-05-12T01:41:15.635Z,21.27
2018-05-12T01:43:43.915Z,23.03
2018-05-12T01:46:12.182Z,22.70
2018-05-12T01:48:40.457Z,23.20
2018-05-12T01:51:08.763Z,23.13
2018-05-12T01:53:37.794Z,22.53
2018-05-12T01:56:06.125Z,22.63
2018-05-12T01:58:35.172Z,24.50
2018-05-12T02:01:04.214Z,23.80
2018-05-12T02:03:33.289Z,23.77
2018-05-12T02:06:01.651Z,24.33
2018-05-12T02:08:30.695Z,23.10
2018-05-12T02:10:59.725Z,25.43
2018-05-12T02:13:28.000Z,25.53
2018-05-12T02:15:56.276Z,26.43
2018-05-12T02:18:24.544Z,28.47
2018-05-12T02:20:52.813Z,26.90
2018-05-12T02:23:21.094Z,29.57
2018-05-12T02:25:49.372Z,29.30
2018-05-12T02:28:17.643Z,28.47
2018-05-12T02:30:45.914Z,28.90
2018-05-12T02:33:14.245Z,29.80
2018-05-12T02:35:42.491Z,30.57
2018-05-12T02:38:10.787Z,31.50
2018-05-12T02:40:39.092Z,31.93
2018-05-12T02:43:07.335Z,31.03
2018-05-12T02:45:35.617Z,31.57
2018-05-12T02:48:03.956Z,31.17
2018-05-12T02:50:32.216Z,31.60
2018-05-12T02:53:00.506Z,32.27
2018-05-12T02:55:28.790Z,31.00
2018-05-12T02:57:57.066Z,32.20
2018-05-12T03:00:25.348Z,33.00
2018-05-12T03:02:53.633Z,31.97
2018-05-12T03:05:21.989Z,34.37
2018-05-12T03:07:50.247Z,32.07
2018-05-12T03:10:19.309Z,30.83
2018-05-12T03:12:47.560Z,31.10
2018-05-12T03:15:15.832Z,32.07
2018-05-12T03:17:44.099Z,31.37
2018-05-12T03:20:12.413Z,31.47
2018-05-12T03:22:40.687Z,30.73
2018-05-12T03:25:08.977Z,32.30
2018-05-12T03:27:37.249Z,30.67
2018-05-12T03:30:05.565Z,32.27
2018-05-12T03:32:33.850Z,31.00
2018-05-12T03:35:02.124Z,31.93
2018-05-12T03:37:30.402Z,31.13
2018-05-12T03:39:58.675Z,33.70
2018-05-12T03:42:26.961Z,32.47
2018-05-12T03:44:55.228Z,35.30
2018-05-12T03:47:23.507Z,36.70
2018-05-12T03:49:51.790Z,35.23
2018-05-12T03:52:20.077Z,37.03
2018-05-12T03:54:48.339Z,35.67
2018-05-12T03:57:16.626Z,35.80
2018-05-12T03:59:44.926Z,35.70
2018-05-12T04:02:13.201Z,35.53
2018-05-12T04:04:53.352Z,35.67
2018-05-12T04:07:33.583Z,35.27
2018-05-12T04:10:08.663Z,33.03
2018-05-12T04:12:38.054Z,33.10
2018-05-12T04:15:06.424Z,32.80
2018-05-12T04:17:34.695Z,32.80
2018-05-12T04:20:02.975Z,32.40
2018-05-12T04:22:31.250Z,33.10
2018-05-12T04:24:59.525Z,31.87
2018-05-12T04:27:27.787Z,32.20
2018-05-12T04:29:56.066Z,33.37
2018-05-12T04:32:24.339Z,35.37
2018-05-12T04:34:52.597Z,32.83
2018-05-12T04:37:20.874Z,33.70
2018-05-12T04:39:49.137Z,32.77
2018-05-12T04:42:17.424Z,33.30
2018-05-12T04:44:46.436Z,31.77
2018-05-12T04:47:14.707Z,33.10
2018-05-12T04:49:43.003Z,33.73
2018-05-12T04:52:11.285Z,32.40
2018-05-12T04:54:39.545Z,32.20
2018-05-12T04:57:07.829Z,32.93
2018-05-12T04:59:36.091Z,34.97
2018-05-12T05:02:04.367Z,33.37
2018-05-12T05:04:32.644Z,33.33
2018-05-12T05:07:00.898Z,35.27
2018-05-12T05:09:29.195Z,35.27
2018-05-12T05:11:57.503Z,34.80
2018-05-12T05:14:25.853Z,34.40
2018-05-12T05:16:54.135Z,33.70
2018-05-12T05:19:22.400Z,34.87
2018-05-12T05:21:50.761Z,35.40
2018-05-12T05:24:19.055Z,35.23
2018-05-12T05:26:47.332Z,33.43
2018-05-12T05:29:16.018Z,36.50
2018-05-12T05:31:44.313Z,34.13
2018-05-12T05:34:12.578Z,34.33
2018-05-12T05:36:40.887Z,33.63
2018-05-12T05:39:09.260Z,33.90
2018-05-12T05:41:37.548Z,34.63
2018-05-12T05:44:05.850Z,35.50
2018-05-12T05:46:34.888Z,35.90
2018-05-12T05:49:03.163Z,35.27
2018-05-12T05:51:31.467Z,35.53
2018-05-12T05:53:59.754Z,34.90
2018-05-12T05:56:28.034Z,36.27
2018-05-12T05:58:57.089Z,35.20
2018-05-12T06:01:25.379Z,35.50
2018-05-12T06:03:53.659Z,35.50
2018-05-12T06:06:21.947Z,37.20
2018-05-12T06:08:50.247Z,36.47
2018-05-12T06:11:19.571Z,35.33
2018-05-12T06:13:47.843Z,36.53
2018-05-12T06:16:16.124Z,33.83
2018-05-12T06:18:44.420Z,34.77
2018-05-12T06:21:12.715Z,34.07
2018-05-12T06:23:40.979Z,33.20
2018-05-12T06:26:09.281Z,31.97
2018-05-12T06:28:37.596Z,32.87
2018-05-12T06:31:05.872Z,31.47
2018-05-12T06:33:34.995Z,31.13
2018-05-12T06:36:03.263Z,33.13
2018-05-12T06:38:31.539Z,34.67
2018-05-12T06:40:59.825Z,31.70
2018-05-12T06:50:18.722Z,30.73
2018-05-12T06:52:47.032Z,29.60
2018-05-12T06:55:18.780Z,29.20
2018-05-12T06:57:47.061Z,29.33
2018-05-12T07:00:15.330Z,29.50
2018-05-12T07:02:43.620Z,26.83
2018-05-12T07:05:11.902Z,28.60
2018-05-12T07:07:40.242Z,27.93
2018-05-12T07:10:08.547Z,27.93
2018-05-12T07:12:36.823Z,26.97
2018-05-12T07:15:05.114Z,26.73
2018-05-12T07:17:33.391Z,27.53
2018-05-12T07:20:01.688Z,25.83
2018-05-12T07:22:30.741Z,28.07
2018-05-12T07:24:59.030Z,28.30
2018-05-12T07:27:27.306Z,27.53
2018-05-12T07:29:55.610Z,29.03
2018-05-12T07:32:23.858Z,27.53
2018-05-12T07:34:52.179Z,27.77
2018-05-12T07:37:21.091Z,27.30
2018-05-12T07:39:49.362Z,27.23
2018-05-12T07:42:17.648Z,28.07
2018-05-12T07:44:46.224Z,27.47
2018-05-12T07:47:14.525Z,27.10
2018-05-12T07:49:42.818Z,26.60
2018-05-12T07:52:11.311Z,27.77
2018-05-12T07:54:39.755Z,26.33
2018-05-12T07:57:08.036Z,28.57
2018-05-12T07:59:36.323Z,27.03
2018-05-12T08:02:04.587Z,27.33
2018-05-12T08:04:32.907Z,29.87
2018-05-12T08:07:01.953Z,28.33
2018-05-12T08:09:30.270Z,27.87
2018-05-12T08:11:58.547Z,27.53
2018-05-12T08:14:26.818Z,28.80
2018-05-12T08:16:55.177Z,27.58
2018-05-12T08:19:23.483Z,26.67
2018-05-12T08:21:52.560Z,27.87
2018-05-12T08:24:21.540Z,26.55
2018-05-12T08:26:49.909Z,27.37
2018-05-12T08:29:18.206Z,26.40
2018-05-12T08:31:46.502Z,24.87
2018-05-12T08:34:15.541Z,25.55
2018-05-12T08:36:43.822Z,24.85
2018-05-12T08:39:12.100Z,25.85
2018-05-12T08:41:40.391Z,23.60
2018-05-12T08:44:08.696Z,27.30
2018-05-12T08:46:37.748Z,25.80
2018-05-12T08:49:06.053Z,24.80
2018-05-12T08:51:34.463Z,24.40
2018-05-12T08:54:03.499Z,24.40
2018-05-12T08:56:31.784Z,21.33
2018-05-12T08:59:00.074Z,20.03
2018-05-12T09:01:28.528Z,19.03
2018-05-12T09:03:56.814Z,20.57
2018-05-12T09:06:25.103Z,20.80
2018-05-12T09:08:53.386Z,20.63
2018-05-12T09:11:31.575Z,21.60
2018-05-12T09:13:59.863Z,19.63
2018-05-12T09:16:28.152Z,21.53
2018-05-12T09:18:56.416Z,23.67
2018-05-12T09:21:24.715Z,22.37
2018-05-12T09:23:53.006Z,19.83
2018-05-12T09:26:21.352Z,17.27
2018-05-12T09:28:49.647Z,15.57
2018-05-12T09:31:17.909Z,15.13
2018-05-12T09:33:46.183Z,17.03
2018-05-12T09:36:14.463Z,16.33
2018-05-12T09:38:43.739Z,15.00
2018-05-12T09:41:12.042Z,14.77
2018-05-12T09:43:40.329Z,17.57
2018-05-12T09:46:08.605Z,18.30
2018-05-12T09:48:36.909Z,17.07
2018-05-12T09:51:05.943Z,16.90
2018-05-12T09:53:34.248Z,17.23
2018-05-12T09:56:02.527Z,17.13
2018-05-12T09:58:30.812Z,20.73
2018-05-12T10:00:59.077Z,18.50
2018-05-12T10:03:27.487Z,21.30
2018-05-12T10:05:55.676Z,20.00
2018-05-12T10:08:24.061Z,20.10
2018-05-12T10:10:52.379Z,18.40
2018-05-12T10:13:20.635Z,18.00
2018-05-12T10:15:48.905Z,18.33
2018-05-12T10:18:17.186Z,16.67
2018-05-12T10:20:45.503Z,15.60
2018-05-12T10:23:13.785Z,18.77
2018-05-12T10:25:42.818Z,17.20
2018-05-12T10:28:11.108Z,18.20
2018-05-12T10:30:39.389Z,17.33
2018-05-12T10:33:07.712Z,17.87
2018-05-12T10:35:35.958Z,16.63
2018-05-12T10:38:04.234Z,16.47
2018-05-12T10:40:32.497Z,14.10
2018-05-12T10:43:00.977Z,9.63
2018-05-12T10:45:29.993Z,12.90
2018-05-12T10:47:58.265Z,6.70
2018-05-12T10:50:26.497Z,7.17
2018-05-12T10:52:54.790Z,8.23
2018-05-12T10:55:23.091Z,6.97
2018-05-12T10:57:51.385Z,4.90
2018-05-12T11:00:19.725Z,4.90
2018-05-12T11:02:47.978Z,5.00
2018-05-12T11:05:16.327Z,5.23
2018-05-12T11:07:44.575Z,5.43
2018-05-12T11:10:12.884Z,4.93
2018-05-12T11:12:41.942Z,6.23
2018-05-12T11:15:10.218Z,5.70
2018-05-12T11:17:38.495Z,5.43
2018-05-12T11:20:06.789Z,5.27
2018-05-12T11:22:35.047Z,5.63
2018-05-12T11:25:03.409Z,4.70
2018-05-12T11:27:31.576Z,5.17
2018-05-12T11:29:59.841Z,5.13
2018-05-12T11:32:28.106Z,6.60
2018-05-12T11:34:56.386Z,5.50
2018-05-12T11:37:24.707Z,4.60
2018-05-12T11:39:52.959Z,4.47
2018-05-12T11:42:21.222Z,5.40
2018-05-12T11:44:49.495Z,4.73
2018-05-12T11:47:17.767Z,4.60
2018-05-12T11:49:46.114Z,6.37
2018-05-12T11:52:14.375Z,4.90
2018-05-12T11:54:42.650Z,4.80
2018-05-12T11:57:10.950Z,4.20
2018-05-12T11:59:39.230Z,4.80
2018-05-12T12:02:07.466Z,4.47
2018-05-12T12:04:35.738Z,4.20
2018-05-12T12:07:03.997Z,4.27
2018-05-12T12:09:32.271Z,4.23
2018-05-12T12:12:00.538Z,4.17
2018-05-12T12:14:28.839Z,4.60
2018-05-12T12:16:57.090Z,5.27
2018-05-12T12:19:25.377Z,3.60
2018-05-12T12:21:54.371Z,4.00
2018-05-12T12:24:22.635Z,4.60
2018-05-12T12:26:50.961Z,3.80
2018-05-12T12:29:19.213Z,4.03
2018-05-12T12:31:47.491Z,3.90
2018-05-12T12:34:15.769Z,3.83
2018-05-12T12:36:44.029Z,5.10
2018-05-12T12:39:12.314Z,4.63
2018-05-12T12:41:40.607Z,4.70
2018-05-12T12:44:08.897Z,3.87
2018-05-12T12:46:37.153Z,4.00
2018-05-12T12:49:05.456Z,4.50
2018-05-12T12:51:33.744Z,3.90
2018-05-12T12:54:02.765Z,3.53
2018-05-12T12:56:33.061Z,4.20
2018-05-12T12:59:01.145Z,4.03
2018-05-12T13:01:29.603Z,4.03
2018-05-12T13:03:57.919Z,6.97
2018-05-12T13:06:26.195Z,4.20
2018-05-12T13:08:54.465Z,4.30
2018-05-12T13:11:22.781Z,3.83
2018-05-12T13:13:51.031Z,4.20
2018-05-12T13:16:19.314Z,3.60
2018-05-12T13:18:49.251Z,4.80
2018-05-12T13:21:17.593Z,3.93
2018-05-12T13:23:46.617Z,4.10
2018-05-12T13:26:14.870Z,4.53
2018-05-12T13:28:43.142Z,4.03
2018-05-12T13:31:11.378Z,5.20
2018-05-12T13:33:39.694Z,3.77
2018-05-12T13:36:08.655Z,3.67
2018-05-12T13:38:36.912Z,3.70
2018-05-12T13:41:05.234Z,4.23
2018-05-12T13:43:33.662Z,3.80
2018-05-12T13:46:01.898Z,3.43
2018-05-12T13:48:30.171Z,3.40
2018-05-12T13:50:58.413Z,3.40
2018-05-12T13:53:26.690Z,4.03
2018-05-12T13:55:55.208Z,3.20
2018-05-12T13:58:24.013Z,4.35
2018-05-12T14:00:52.271Z,4.57
2018-05-12T14:03:20.521Z,3.97
2018-05-12T14:05:48.791Z,3.47
2018-05-12T14:08:17.049Z,3.30
2018-05-12T14:10:45.324Z,2.90
2018-05-12T14:13:13.811Z,3.40
2018-05-12T14:15:42.052Z,3.10
2018-05-12T14:18:10.332Z,3.73
2018-05-12T14:20:38.568Z,3.47
2018-05-12T14:23:07.603Z,3.20
2018-05-12T14:25:35.909Z,3.23
2018-05-12T14:28:04.178Z,3.30
2018-05-12T14:30:32.584Z,3.30
2018-05-12T14:33:00.797Z,3.23
2018-05-12T14:35:29.045Z,3.33
2018-05-12T14:37:57.801Z,2.93
2018-05-12T14:40:26.035Z,2.93
2018-05-12T14:42:54.314Z,2.97
2018-05-12T14:45:22.546Z,4.67
2018-05-12T14:47:51.579Z,3.00
2018-05-12T14:50:19.844Z,4.17
2018-05-12T14:52:48.094Z,3.47
2018-05-12T14:55:17.879Z,2.90
2018-05-12T14:57:46.154Z,3.20
2018-05-12T15:00:14.455Z,3.03
2018-05-12T15:02:42.744Z,2.60
2018-05-12T15:05:10.987Z,3.60
2018-05-12T15:07:39.242Z,3.17
2018-05-12T15:10:07.523Z,3.00
2018-05-12T15:12:35.809Z,3.13
2018-05-12T15:15:04.079Z,3.53
2018-05-12T15:17:32.328Z,3.27
2018-05-12T15:20:00.606Z,3.20
2018-05-12T15:22:28.874Z,3.37
2018-05-12T15:24:57.149Z,3.43
2018-05-12T15:27:26.285Z,3.60
2018-05-12T15:29:54.572Z,3.40
2018-05-12T15:32:22.834Z,3.40
2018-05-12T15:34:51.220Z,2.90
2018-05-12T15:37:19.475Z,3.03
2018-05-12T15:39:47.766Z,3.27
2018-05-12T15:42:16.016Z,2.63
2018-05-12T15:44:44.277Z,2.87
2018-05-12T15:47:12.536Z,3.10
2018-05-12T15:49:41.600Z,3.27
2018-05-12T15:52:09.836Z,2.90
2018-05-12T15:54:38.167Z,2.80
2018-05-12T15:57:06.449Z,3.23
2018-05-12T15:59:35.466Z,3.00
2018-05-12T16:02:03.732Z,3.07
2018-05-12T16:04:32.887Z,3.27
2018-05-12T16:07:01.147Z,3.20
2018-05-12T16:09:29.402Z,3.77
2018-05-12T16:11:57.670Z,3.60
2018-05-12T16:14:25.929Z,3.77
2018-05-12T16:16:54.973Z,4.07
2018-05-12T16:19:23.241Z,3.03
2018-05-12T16:21:51.494Z,2.90
2018-05-12T16:24:19.766Z,3.30
2018-05-12T16:26:48.050Z,2.80
2018-05-12T16:29:16.296Z,3.30
2018-05-12T16:31:45.345Z,2.97
2018-05-12T16:34:14.373Z,2.73
2018-05-12T16:36:42.619Z,2.70
2018-05-12T16:39:10.905Z,2.63
2018-05-12T16:41:39.394Z,3.10
2018-05-12T16:44:07.734Z,2.73
2018-05-12T16:46:35.915Z,3.70
2018-05-12T16:49:04.185Z,3.03
2018-05-12T16:51:32.488Z,3.20
2018-05-12T16:54:00.769Z,3.17
2018-05-12T16:56:29.807Z,4.30
2018-05-12T16:58:58.823Z,3.20
2018-05-12T17:01:27.132Z,5.27
2018-05-12T17:03:55.420Z,2.53
2018-05-12T17:06:23.704Z,2.80
2018-05-12T17:08:51.927Z,3.00
2018-05-12T17:11:20.193Z,2.80
2018-05-12T17:13:48.450Z,2.87
2018-05-12T17:16:17.490Z,3.00
2018-05-12T17:18:45.789Z,2.70
2018-05-12T17:21:14.053Z,2.63
2018-05-12T17:23:42.437Z,3.03
2018-05-12T17:26:10.712Z,3.00
2018-05-12T17:28:38.957Z,3.10
2018-05-12T17:31:07.228Z,3.83
2018-05-12T17:33:35.486Z,3.20
2018-05-12T17:36:04.527Z,4.10
2018-05-12T17:38:32.773Z,3.40
2018-05-12T17:41:01.038Z,3.07
2018-05-12T17:43:29.305Z,3.00
2018-05-12T17:45:57.584Z,2.50
2018-05-12T17:48:27.167Z,2.73
2018-05-12T17:50:55.421Z,2.80
2018-05-12T17:53:23.698Z,2.70
2018-05-12T17:55:51.949Z,3.20
2018-05-12T17:58:20.224Z,3.87
2018-05-12T18:00:48.468Z,3.37
2018-05-12T18:03:17.482Z,4.17
2018-05-12T18:05:45.824Z,3.70
2018-05-12T18:08:14.090Z,4.93
2018-05-12T18:10:42.458Z,7.57
2018-05-12T18:13:10.735Z,4.90
2018-05-12T18:15:38.980Z,4.27
2018-05-12T18:18:07.232Z,3.77
2018-05-12T18:20:36.262Z,4.20
2018-05-12T18:23:04.548Z,4.57
2018-05-12T18:25:32.796Z,4.90
2018-05-12T18:28:01.091Z,4.80
2018-05-12T18:30:29.337Z,4.33
2018-05-12T18:32:57.674Z,4.60
2018-05-12T18:35:25.931Z,3.70
2018-05-12T18:37:54.178Z,3.70
2018-05-12T18:40:22.460Z,3.70
2018-05-12T18:42:50.697Z,3.90
2018-05-12T18:45:19.725Z,4.03
2018-05-12T18:47:48.439Z,4.10
2018-05-12T18:50:16.699Z,4.63
2018-05-12T18:52:44.960Z,5.50
2018-05-12T18:55:13.238Z,5.67
2018-05-12T18:57:41.515Z,4.20
2018-05-12T19:00:09.775Z,4.13
2018-05-12T19:02:38.053Z,4.53
2018-05-12T19:05:06.318Z,3.70
2018-05-12T19:07:35.364Z,3.90
2018-05-12T19:10:03.599Z,3.30
2018-05-12T19:12:31.870Z,4.10
2018-05-12T19:15:00.148Z,3.70
2018-05-12T19:17:29.205Z,3.67
2018-05-12T19:20:00.026Z,4.00
2018-05-12T19:22:28.327Z,4.60
2018-05-12T19:24:56.563Z,4.33
2018-05-12T19:27:24.950Z,4.40
2018-05-12T19:29:53.265Z,4.30
2018-05-12T19:32:22.299Z,3.93
2018-05-12T19:34:50.644Z,4.13
2018-05-12T19:37:19.653Z,3.85
2018-05-12T19:39:47.926Z,4.23
2018-05-12T19:42:16.206Z,4.30
2018-05-12T19:44:44.486Z,4.40
2018-05-12T19:47:12.794Z,4.10
2018-05-12T19:49:41.115Z,3.97
2018-05-12T19:52:09.347Z,4.70
2018-05-12T19:54:37.631Z,4.23
2018-05-12T19:57:05.910Z,4.03
2018-05-12T19:59:34.147Z,3.83
2018-05-12T20:02:02.435Z,4.77
2018-05-12T20:04:31.832Z,4.40
2018-05-12T20:07:00.146Z,4.50
2018-05-12T20:09:29.178Z,4.80
2018-05-12T20:11:57.438Z,4.90
2018-05-12T20:14:25.694Z,4.93
2018-05-12T20:16:54.099Z,5.27
2018-05-12T20:19:22.390Z,4.73
2018-05-12T20:21:51.402Z,5.23
2018-05-12T20:24:19.679Z,5.10
2018-05-12T20:26:47.933Z,5.13
2018-05-12T20:29:16.228Z,5.03
2018-05-12T20:31:44.476Z,4.90
2018-05-12T20:34:13.531Z,5.30
2018-05-12T20:36:41.771Z,6.27
2018-05-12T20:39:10.052Z,6.27
2018-05-12T20:41:38.324Z,6.23
2018-05-12T20:44:06.581Z,6.33
2018-05-12T20:46:35.638Z,6.47
2018-05-12T20:49:03.907Z,6.70
2018-05-12T20:51:32.171Z,7.93
2018-05-12T20:54:00.417Z,8.07
2018-05-12T20:56:28.702Z,7.57
2018-05-12T20:58:57.032Z,7.30
2018-05-12T21:01:25.314Z,6.70
2018-05-12T21:03:53.597Z,7.57
2018-05-12T21:06:22.633Z,7.17
2018-05-12T21:08:50.878Z,7.30
2018-05-12T21:13:53.009Z,9.80
2018-05-12T21:16:21.286Z,9.43
2018-05-12T21:18:49.576Z,8.27
2018-05-12T21:21:17.853Z,8.23
2018-05-12T21:23:46.202Z,8.07
2018-05-12T21:26:14.370Z,6.67
2018-05-12T21:28:42.642Z,6.93
2018-05-12T21:31:10.903Z,6.17
2018-05-12T21:33:39.920Z,5.87
2018-05-12T21:36:08.762Z,5.83
2018-05-12T21:38:37.090Z,5.67
2018-05-12T21:41:05.355Z,5.73
2018-05-12T21:43:34.512Z,5.40
2018-05-12T21:46:02.732Z,5.17
2018-05-12T21:48:31.867Z,5.37
2018-05-12T21:51:00.164Z,4.83
2018-05-12T21:53:29.297Z,5.47
2018-05-12T21:55:57.572Z,5.63
2018-05-12T21:58:27.895Z,5.50
2018-05-12T22:00:56.912Z,5.17
2018-05-12T22:03:25.172Z,4.47
2018-05-12T22:05:53.432Z,4.40
2018-05-12T22:08:21.700Z,4.07
2018-05-12T22:10:50.726Z,4.63
2018-05-12T22:13:18.984Z,4.57
2018-05-12T22:15:47.316Z,5.03
2018-05-12T22:18:15.627Z,4.70
2018-05-12T22:20:44.674Z,4.00
2018-05-12T22:23:13.796Z,4.03
2018-05-12T22:25:42.087Z,4.77
2018-05-12T22:28:11.108Z,4.10
2018-05-12T22:30:39.354Z,4.47
2018-05-12T22:33:08.517Z,3.90
2018-05-12T22:35:36.808Z,3.60
2018-05-12T22:38:05.167Z,4.07
2018-05-12T22:40:33.435Z,3.80
2018-05-12T22:43:02.464Z,3.70
2018-05-12T22:45:30.735Z,4.17
2018-05-12T22:47:58.986Z,3.90
2018-05-12T22:50:27.259Z,3.77
2018-05-12T22:52:55.484Z,4.20
2018-05-12T22:55:24.513Z,4.00
2018-05-12T22:57:52.773Z,4.57
2018-05-12T23:00:21.805Z,4.27
2018-05-12T23:02:50.078Z,4.53
2018-05-12T23:05:18.334Z,4.87
2018-05-12T23:07:46.619Z,4.60
2018-05-12T23:10:14.946Z,4.50
2018-05-12T23:12:43.168Z,4.57
2018-05-12T23:15:11.410Z,4.43
2018-05-12T23:17:39.694Z,4.43
2018-05-12T23:20:07.963Z,4.67
2018-05-12T23:22:36.243Z,4.50
2018-05-12T23:25:05.300Z,4.33
2018-05-12T23:27:33.506Z,4.50
2018-05-12T23:30:02.543Z,4.13
2018-05-12T23:32:30.798Z,4.53
2018-05-12T23:34:59.051Z,4.40
2018-05-12T23:37:28.066Z,4.30
2018-05-12T23:39:56.350Z,4.03
2018-05-12T23:42:24.684Z,4.20
2018-05-12T23:44:52.869Z,4.50
2018-05-12T23:47:21.944Z,4.10
2018-05-12T23:49:50.998Z,4.43
2018-05-12T23:52:19.247Z,4.03
2018-05-12T23:54:47.510Z,4.67
2018-05-12T23:57:16.555Z,4.30
2018-05-12T23:59:45.589Z,4.67
